HDAM/JIB METAR and TAF weather

Enter ICAO airport designator
Station Type Date Time Source
HDAM METAR 2019/06/26 17:30 UTC NOAA

HDAM 261730Z 17005KT CAVOK 34/24 Q1003


Station Type Date Time Source
HDAM Decoded METAR 2019/06/26 17:30 UTC NOAA

Djibouti \ Ambouli, Djibouti (HDAM) 11-33N 043-10E
Jun 26, 2019 - 01:30 PM EDT / 2019.06.26 1730 UTC
Wind: from the S (170 degrees) at 6 MPH (5 KT):0
Visibility: greater than 7 mile(s):0
Temperature: 93 F (34 C)
Heat index: 104.5 F (40.3 C):1
Dew Point: 75 F (24 C)
Relative Humidity: 56%
Pressure (altimeter): 29.62 in. Hg (1003 hPa)
ob: HDAM 261730Z 17005KT CAVOK 34/24 Q1003
cycle: 17

Station Type Date Time Source
HDAM TAF 2019/06/26 18:51 UTC NOAA

TAF TAF HDAM 261730Z 2618/2718 VRB05KT CAVOK
BECMG 2700/2706 00000KT SCT133
BECMG 2706/2712 27010KT SKC NSC
BECMG 2712/2715 08010KT

Example: see airport list